Terminal Aerodrome Forecast
Issued by NWS

Home | Current Version | Previous Version | Graphics & Text | Print | Product List | Glossary On
Versions: 1 2 3 4 5 6 7 8 9 10 11 12 13 14 15 16
000
FTUS43 KTOP 141100
TAFMHK
TAF
KMHK 141122Z 1412/1512 13003KT P6SM FEW250
     FM141400 16010KT P6SM SCT060
     FM150100 14005KT P6SM BKN070=

USA.gov is the U.S. government's official web portal to all federal, state and local government web resources and services.